首页
METAR-TAF:

METAR-TAF

机场 :

卡萨格兰德, 亞利桑那州, 美国

纬度: 32-57N, 经度: 111-46W, 海拔: 446米

当前天气观测

该预报发布于34分钟前的04:56 UTC
风速3节,风向西北
温度 13°C
湿度 82%
气压 1021 hPa
能見度: 16.1公里
少量云层高于5000英尺
阴天层高于9500英尺
小雨

METAR: KCGZ 080456Z AUTO 32003KT 10SM -RA FEW050 OVC095 13/10 A3014 RMK AO2 SLP205 P0003 T01330100

时间: 22:30 (05:30 UTC)


TAF: 丢失

超过4000个机场的气象观测和天气预报(METAR&TAF报告)。

可查询的气象台以黄色和红色小点在地图上表示。

将鼠标移到小点上方,可查看气象台名称。

然后点击查看天气观测和预报。

如需切换地图:点击带黑十字的绿色按钮放大地图;点击带横线的绿色按钮缩小地图;或者点击绿色箭头查看邻近地区的地图。


METAR-TAF: